Orbital elements of BREEZE-M R/B
| Launched | 13 November 2010 |
| Flight ended | – |
| Launch site | Tyuratam Missile and Space Center, Kazakhstan (Also known as Baikonur Cosmodrome) |
| Owner | Commonwealth of Independent States (former USSR) |
| NORAD ID | 37219 |
| Date fetched |
Epoch osculation |
Inc. [°] |
Ecc. | RA asc node [hr] |
Arg Peri. [°] |
Mean anom [°] |
Mean motion [rev/day] |
Abs. mag |
| Date fetched |
Epoch osculation |
Inc. [°] |
Ecc. | RA asc node [hr] |
Arg Peri. [°] |
Mean anom [°] |
Mean motion [rev/day] |
Abs. mag |
| 2026 May 08 17:57 | 2026 May 04 19:15:45 | 18.8261 | 0.54570 | 21.9799 | 233.9306 | 75.2073 | 1.94594 | – |
| 2026 May 07 17:58 | 2026 May 04 19:15:45 | 18.8261 | 0.54570 | 21.9799 | 233.9306 | 75.2073 | 1.94594 | – |
| 2026 May 06 17:57 | 2026 May 04 19:15:45 | 18.8261 | 0.54570 | 21.9799 | 233.9306 | 75.2073 | 1.94594 | – |
| 2026 May 05 17:57 | 2026 May 04 19:15:45 | 18.8261 | 0.54570 | 21.9799 | 233.9306 | 75.2073 | 1.94594 | – |
| 2026 May 04 17:57 | 2026 Apr 29 03:30:17 | 18.8294 | 0.54572 | 22.0255 | 232.6568 | 75.2073 | 1.94594 | – |
| 2026 May 03 17:57 | 2026 Apr 29 03:30:17 | 18.8294 | 0.54572 | 22.0255 | 232.6568 | 75.2073 | 1.94594 | – |
| 2026 May 02 17:57 | 2026 Apr 29 03:30:17 | 18.8294 | 0.54572 | 22.0255 | 232.6568 | 75.2073 | 1.94594 | – |
| 2026 May 01 17:56 | 2026 Apr 29 03:30:17 | 18.8294 | 0.54572 | 22.0255 | 232.6568 | 75.2073 | 1.94594 | – |
| 2026 Apr 30 17:56 | 2026 Apr 29 03:30:17 | 18.8294 | 0.54572 | 22.0255 | 232.6568 | 75.2073 | 1.94594 | – |
| 2026 Apr 29 17:57 | 2026 Apr 23 11:44:36 | 18.8325 | 0.54576 | 22.0711 | 231.3787 | 75.2073 | 1.94594 | – |
| 2026 Apr 28 17:56 | 2026 Apr 23 11:44:36 | 18.8325 | 0.54576 | 22.0711 | 231.3787 | 75.2073 | 1.94594 | – |
| 2026 Apr 27 17:58 | 2026 Apr 23 11:44:36 | 18.8325 | 0.54576 | 22.0711 | 231.3787 | 75.2073 | 1.94594 | – |
| 2026 Apr 26 17:58 | 2026 Apr 23 11:44:36 | 18.8325 | 0.54576 | 22.0711 | 231.3787 | 75.2073 | 1.94594 | – |
| 2026 Apr 25 17:58 | 2026 Apr 23 11:44:36 | 18.8325 | 0.54576 | 22.0711 | 231.3787 | 75.2073 | 1.94594 | – |
| 2026 Apr 24 17:59 | 2026 Apr 23 11:44:36 | 18.8325 | 0.54576 | 22.0711 | 231.3787 | 75.2073 | 1.94594 | – |
| 2026 Apr 23 17:57 | 2026 Apr 19 08:41:57 | 18.8352 | 0.54577 | 22.1044 | 230.4454 | 75.2073 | 1.94594 | – |
| 2026 Apr 22 17:57 | 2026 Apr 19 08:41:57 | 18.8352 | 0.54577 | 22.1044 | 230.4454 | 75.2073 | 1.94594 | – |
| 2026 Apr 21 17:57 | 2026 Apr 19 08:41:57 | 18.8352 | 0.54577 | 22.1044 | 230.4454 | 75.2073 | 1.94594 | – |
| 2026 Apr 20 17:57 | 2026 Apr 19 08:41:57 | 18.8352 | 0.54577 | 22.1044 | 230.4454 | 75.2073 | 1.94594 | – |
| 2026 Apr 19 17:58 | 2026 Apr 19 08:41:57 | 18.8352 | 0.54577 | 22.1044 | 230.4454 | 75.2073 | 1.94594 | – |
| 2026 Apr 18 17:56 | 2026 Apr 12 04:13:52 | 18.8401 | 0.54581 | 22.1623 | 228.8202 | 75.2073 | 1.94594 | – |
| 2026 Apr 16 17:57 | 2026 Apr 12 04:13:52 | 18.8401 | 0.54581 | 22.1623 | 228.8202 | 75.2073 | 1.94594 | – |
| 2026 Apr 14 17:57 | 2026 Apr 12 04:13:52 | 18.8401 | 0.54581 | 22.1623 | 228.8202 | 75.2073 | 1.94594 | – |
| 2026 Apr 13 17:57 | 2026 Apr 12 04:13:52 | 18.8401 | 0.54581 | 22.1623 | 228.8202 | 75.2073 | 1.94594 | – |
| 2026 Apr 12 17:57 | 2026 Apr 07 23:36:28 | 18.8426 | 0.54582 | 22.1961 | 227.8725 | 75.2073 | 1.94594 | – |
| 2026 Apr 11 17:57 | 2026 Apr 07 23:36:28 | 18.8426 | 0.54582 | 22.1961 | 227.8725 | 75.2073 | 1.94594 | – |